Flight Track Log - Related Links

Times and Time Zones

All times are in EDT time to prevent confusion due to time zone crossing. See the SWA3313 flight status page for this flight to view local times or setup timezone preferences in your user account.

Time Position Orientation Groundspeed Altitude Reporting Facility
EDT Latitude Longitude Course Direction KTS MPH feet Rate Location/Type
Sun 08:08:37 PM 39.1500 -76.6500 211° Southwest 147 169 1,400  Level Potomac TRACON
Sun 08:09:37 PM 39.1333 -76.7000 247° West 228 262 3,600 2,667 Climbing Potomac TRACON
Sun 08:10:43 PM 39.1667 -76.8000 293° West 268 308 7,000 3,521 Climbing Potomac TRACON
Sun 08:11:38 PM 39.2000 -76.8833 297° West 287 330 10,700 3,600 Climbing Potomac TRACON
Sun 08:12:38 PM 39.2167 -76.9833 282° West 303 349 13,900 2,810 Climbing Potomac TRACON
Sun 08:13:44 PM 39.2167 -77.1167 270° West 363 418 16,600 1,476 Climbing Potomac TRACON
Sun 08:14:00 PM 39.1529 -77.1904 211° Southwest  Level FlightAware Approximate
Sun 08:14:44 PM 39.1500 -77.2167 229° Southwest 363 418 17,000  Level Potomac TRACON
Sun 08:15:44 PM 39.0667 -77.2833 212° Southwest 354 407 18,900 2,400 Climbing Potomac TRACON
Sun 08:16:44 PM 38.9833 -77.3333 205° Southwest 368 423 21,800 2,050 Climbing Potomac TRACON
Sun 08:17:44 PM 38.8667 -77.3667 193° South 392 451 23,000 1,015 Climbing Potomac TRACON
Sun 08:20:05 PM 38.6389 -77.4283 192° South 374 430 25,200 1,194 Climbing Washington Center
Sun 08:21:05 PM 38.5400 -77.4842 204° Southwest 379 436 27,000 1,600 Climbing Washington Center
Sun 08:22:05 PM 38.4325 -77.5478 205° Southwest 384 442 28,400 1,700 Climbing Washington Center
Sun 08:23:05 PM 38.3497 -77.6356 220° Southwest 389 448 30,400 1,800 Climbing Washington Center
Sun 08:24:05 PM 38.2833 -77.7422 232° Southwest 389 448 32,000 800 Climbing Washington Center
Sun 08:25:05 PM 38.2167 -77.8433 230° Southwest 384 442 32,000  Level Washington Center
Sun 08:26:05 PM 38.1567 -77.9392 231° Southwest 375 432 32,000  Level Washington Center
Sun 08:27:05 PM 38.0942 -78.0322 230° Southwest 363 418 32,000  Level Washington Center
Sun 08:28:05 PM 38.0339 -78.1278 231° Southwest 358 412 32,000  Level Washington Center
Sun 08:29:05 PM 37.9819 -78.2106 231° Southwest 341 392 32,000  Level Washington Center
Sun 08:30:05 PM 37.9153 -78.3003 227° Southwest 347 399 32,000  Level Washington Center
Sun 08:31:05 PM 37.8506 -78.3928 228° Southwest 352 405 32,000  Level Washington Center
Sun 08:32:05 PM 37.7858 -78.4875 229° Southwest 352 405 32,000  Level Washington Center
Sun 08:33:05 PM 37.7144 -78.5897 229° Southwest 357 411 32,000  Level Washington Center
Sun 08:34:05 PM 37.6497 -78.6817 228° Southwest 357 411 32,000  Level Washington Center
Sun 08:35:05 PM 37.5847 -78.7733 228° Southwest 357 411 32,000  Level Washington Center
Sun 08:36:05 PM 37.5197 -78.8650 228° Southwest 357 411 32,000  Level Washington Center
Sun 08:37:05 PM 37.4631 -78.9436 228° Southwest 357 411 32,000  Level Washington Center
Sun 08:38:05 PM 37.4003 -79.0322 228° Southwest 357 411 32,000  Level Washington Center
Sun 08:39:05 PM 37.3350 -79.1233 228° Southwest 357 411 32,000  Level Washington Center
Sun 08:40:05 PM 37.2719 -79.2092 227° Southwest 357 411 32,000  Level Washington Center
Sun 08:41:05 PM 37.1967 -79.2839 218° Southwest 350 403 32,000  Level Washington Center
Sun 08:42:05 PM 37.1172 -79.3503 214° Southwest 350 403 32,000  Level Washington Center
Sun 08:43:05 PM 37.0317 -79.4217 214° Southwest 350 403 32,000  Level Washington Center
Sun 08:44:05 PM 36.9503 -79.4878 213° Southwest 350 403 32,000  Level Washington Center
Sun 08:45:05 PM 36.8664 -79.5589 214° Southwest 357 411 32,000  Level Washington Center
Sun 08:46:05 PM 36.7828 -79.6272 213° Southwest 357 411 32,000 -469 Level Washington Center
Sun 08:48:17 PM 36.6075 -79.7664 213° Southwest 356 410 30,500 -1,313 Descending Atlanta Center
Sun 08:49:17 PM 36.5242 -79.8331 213° Southwest 356 410 27,800 -2,600 Descending Atlanta Center
Sun 08:50:17 PM 36.4369 -79.9047 213° Southwest 363 418 25,300 -2,700 Descending Atlanta Center
Sun 08:51:17 PM 36.3436 -79.9792 213° Southwest 363 418 22,400 -1,650 Descending Atlanta Center
Sun 08:52:17 PM 36.2644 -80.0447 214° Southwest 358 412 22,000 -350 Descending Atlanta Center
Sun 08:53:17 PM 36.1939 -80.1203 221° Southwest 346 398 21,700 -700 Descending Atlanta Center
Sun 08:54:17 PM 36.1786 -80.2342 261° West 321 369 20,600 -1,200 Descending Atlanta Center
Sun 08:55:17 PM 36.1400 -80.3311 244° Southwest 327 376 19,300 -1,300 Descending Atlanta Center
Sun 08:56:17 PM 36.0531 -80.3531 192° South 306 352 18,000 -1,750 Descending Atlanta Center
Sun 08:57:17 PM 35.9642 -80.3856 196° South 320 368 15,800 -2,400 Descending Atlanta Center
Sun 08:57:52 PM 35.9025 -80.4089 197° South 334 384 14,200 -2,500 Descending Atlanta Center
Sun 08:58:17 PM 35.8650 -80.4181 191° South 334 384 13,300 -1,139 Descending Atlanta Center
Sun 08:59:11 PM 35.7972 -80.4519 202° Southwest 301 346 12,700 -828 Descending Atlanta Center
Sun 09:00:13 PM 35.7278 -80.5061 212° Southwest 267 307 11,700 -984 Descending Atlanta Center
Sun 09:01:13 PM 35.6647 -80.5600 215° Southwest 277 319 10,700 -984 Descending Atlanta Center
Sun 09:02:15 PM 35.5994 -80.6139 214° Southwest 281 323 9,700 -872 Descending Atlanta Center
Sun 09:03:10 PM 35.5403 -80.6622 214° Southwest 278 320 9,000 -344 Descending Atlanta Center
Sun 09:04:17 PM 35.4772 -80.7158 215° Southwest 281 323 9,000  Level Atlanta Center
Sun 09:05:17 PM 35.4078 -80.7719 213° Southwest 281 323 9,000  Level Atlanta Center
Sun 09:06:17 PM 35.3444 -80.8231 213° Southwest 275 316 9,000  Level Atlanta Center
Sun 09:07:14 PM 35.2864 -80.8431 196° South 231 266 9,000 -290 Level Atlanta Center
Sun 09:08:21 PM 35.2175 -80.8356 175° South 229 264 8,400 -797 Descending Atlanta Center
Sun 09:09:22 PM 35.1528 -80.8306 176° South 225 259 7,300 -1,231 Descending Atlanta Center
Sun 09:10:18 PM 35.0961 -80.8250 175° South 216 249 6,000 -1,317 Descending Atlanta Center
Sun 09:11:25 PM 35.0250 -80.8203 177° South 218 251 4,600 -945 Descending Atlanta Center
Sun 09:12:25 PM 34.9667 -80.8147 176° South 215 247 4,000 -295 Descending Atlanta Center
Sun 09:13:27 PM 34.9472 -80.8714 247° West 194 223 4,000  Level Atlanta Center
Sun 09:14:28 PM 34.9711 -80.9136 305° West 175 201 4,000  Level Atlanta Center
Sun 09:15:41 PM 35.0297 -80.9214 354° North 170 196 4,000 -310 Level Atlanta Center
Sun 09:16:24 PM 35.0633 -80.9253 355° North 173 199 3,400 -931 Descending Atlanta Center
Sun 09:17:37 PM 35.1219 -80.9306 356° North 170 196 2,200 -857 Descending Atlanta Center
Sun 09:18:37 PM 35.1636 -80.9342 356° North 139 160 1,500 -700 Descending Atlanta Center
Sun 09:20:00 PM 35.2000 -80.9333 North  Level FlightAware Approximate
Sun 09:27:00 PM 35.2137 -80.9491 North  Level Estimated

Login

Don't have an account? Register now (free) for customized features, flight alerts, and more!